sensor_id;sensor_type;location;lat;lon;timestamp;P1;durP1;ratioP1;P2;durP2;ratioP2
23718;SDS011;43322;52.230;5.702;2022-09-09T00:00:11;2.53;;;1.73;;
23718;SDS011;43322;52.230;5.702;2022-09-09T00:02:42;2.03;;;1.75;;
23718;SDS011;43322;52.230;5.702;2022-09-09T00:05:17;4.20;;;2.05;;
23718;SDS011;43322;52.230;5.702;2022-09-09T00:07:52;1.65;;;1.55;;
23718;SDS011;43322;52.230;5.702;2022-09-09T00:10:22;1.90;;;1.80;;
23718;SDS011;43322;52.230;5.702;2022-09-09T00:12:57;1.75;;;1.65;;
23718;SDS011;43322;52.230;5.702;2022-09-09T00:15:31;3.75;;;1.70;;
23718;SDS011;43322;52.230;5.702;2022-09-09T00:18:03;2.28;;;2.08;;
23718;SDS011;43322;52.230;5.702;2022-09-09T00:20:41;2.17;;;1.90;;
23718;SDS011;43322;52.230;5.702;2022-09-09T00:23:17;2.10;;;2.00;;
23718;SDS011;43322;52.230;5.702;2022-09-09T00:25:53;1.95;;;1.77;;
23718;SDS011;43322;52.230;5.702;2022-09-09T00:28:26;3.40;;;1.88;;
23718;SDS011;43322;52.230;5.702;2022-09-09T00:30:58;2.90;;;2.00;;
23718;SDS011;43322;52.230;5.702;2022-09-09T00:33:34;1.92;;;1.83;;
23718;SDS011;43322;52.230;5.702;2022-09-09T00:36:01;2.72;;;2.00;;
23718;SDS011;43322;52.230;5.702;2022-09-09T00:38:31;2.20;;;2.10;;
23718;SDS011;43322;52.230;5.702;2022-09-09T00:41:03;1.90;;;1.80;;
23718;SDS011;43322;52.230;5.702;2022-09-09T00:43:37;2.28;;;2.17;;
23718;SDS011;43322;52.230;5.702;2022-09-09T00:46:14;4.45;;;2.30;;
23718;SDS011;43322;52.230;5.702;2022-09-09T00:48:55;3.95;;;2.63;;
23718;SDS011;43322;52.230;5.702;2022-09-09T00:51:33;1.98;;;1.80;;
23718;SDS011;43322;52.230;5.702;2022-09-09T00:54:14;2.28;;;2.08;;
23718;SDS011;43322;52.230;5.702;2022-09-09T00:56:52;2.67;;;2.13;;
23718;SDS011;43322;52.230;5.702;2022-09-09T00:59:28;2.88;;;2.67;;
23718;SDS011;43322;52.230;5.702;2022-09-09T01:02:02;2.58;;;2.35;;
23718;SDS011;43322;52.230;5.702;2022-09-09T01:04:34;3.85;;;2.50;;
23718;SDS011;43322;52.230;5.702;2022-09-09T01:07:04;2.72;;;2.53;;
23718;SDS011;43322;52.230;5.702;2022-09-09T01:09:42;2.85;;;2.70;;
23718;SDS011;43322;52.230;5.702;2022-09-09T01:12:22;3.00;;;2.80;;
23718;SDS011;43322;52.230;5.702;2022-09-09T01:14:52;4.10;;;3.08;;
23718;SDS011;43322;52.230;5.702;2022-09-09T01:17:30;3.88;;;2.97;;
23718;SDS011;43322;52.230;5.702;2022-09-09T01:20:02;3.58;;;3.38;;
23718;SDS011;43322;52.230;5.702;2022-09-09T01:22:36;3.92;;;3.45;;
23718;SDS011;43322;52.230;5.702;2022-09-09T01:25:22;3.40;;;3.17;;
23718;SDS011;43322;52.230;5.702;2022-09-09T01:27:56;3.83;;;3.63;;
23718;SDS011;43322;52.230;5.702;2022-09-09T01:30:26;4.47;;;4.10;;
23718;SDS011;43322;52.230;5.702;2022-09-09T01:32:55;4.25;;;3.95;;
23718;SDS011;43322;52.230;5.702;2022-09-09T01:35:32;4.53;;;4.22;;
23718;SDS011;43322;52.230;5.702;2022-09-09T01:38:05;4.53;;;4.22;;
23718;SDS011;43322;52.230;5.702;2022-09-09T01:40:32;7.53;;;5.05;;
23718;SDS011;43322;52.230;5.702;2022-09-09T01:43:01;5.55;;;5.05;;
23718;SDS011;43322;52.230;5.702;2022-09-09T01:45:28;5.32;;;4.63;;
23718;SDS011;43322;52.230;5.702;2022-09-09T01:47:55;7.10;;;4.97;;
23718;SDS011;43322;52.230;5.702;2022-09-09T01:50:23;5.45;;;4.93;;
23718;SDS011;43322;52.230;5.702;2022-09-09T01:52:50;5.78;;;5.28;;
23718;SDS011;43322;52.230;5.702;2022-09-09T01:55:22;6.13;;;5.63;;
23718;SDS011;43322;52.230;5.702;2022-09-09T01:57:57;5.63;;;5.22;;
23718;SDS011;43322;52.230;5.702;2022-09-09T02:00:38;5.47;;;5.07;;
23718;SDS011;43322;52.230;5.702;2022-09-09T02:03:12;8.25;;;5.55;;
23718;SDS011;43322;52.230;5.702;2022-09-09T02:05:49;6.47;;;5.88;;
23718;SDS011;43322;52.230;5.702;2022-09-09T02:08:25;6.18;;;5.68;;
23718;SDS011;43322;52.230;5.702;2022-09-09T02:10:59;5.82;;;5.38;;
23718;SDS011;43322;52.230;5.702;2022-09-09T02:13:34;7.15;;;6.03;;
23718;SDS011;43322;52.230;5.702;2022-09-09T02:16:03;6.80;;;5.82;;
23718;SDS011;43322;52.230;5.702;2022-09-09T02:18:35;6.22;;;5.72;;
23718;SDS011;43322;52.230;5.702;2022-09-09T02:21:05;6.18;;;5.75;;
23718;SDS011;43322;52.230;5.702;2022-09-09T02:23:33;6.10;;;5.70;;
23718;SDS011;43322;52.230;5.702;2022-09-09T02:26:01;6.30;;;5.90;;
23718;SDS011;43322;52.230;5.702;2022-09-09T02:28:30;13.07;;;6.35;;
23718;SDS011;43322;52.230;5.702;2022-09-09T02:31:00;6.57;;;6.07;;
23718;SDS011;43322;52.230;5.702;2022-09-09T02:33:28;6.57;;;5.97;;
23718;SDS011;43322;52.230;5.702;2022-09-09T02:36:00;6.03;;;5.53;;
23718;SDS011;43322;52.230;5.702;2022-09-09T02:38:33;6.57;;;6.00;;
23718;SDS011;43322;52.230;5.702;2022-09-09T02:41:02;6.45;;;5.95;;
23718;SDS011;43322;52.230;5.702;2022-09-09T02:43:30;6.38;;;5.90;;
23718;SDS011;43322;52.230;5.702;2022-09-09T02:46:01;6.35;;;5.90;;
23718;SDS011;43322;52.230;5.702;2022-09-09T02:48:36;6.15;;;5.55;;
23718;SDS011;43322;52.230;5.702;2022-09-09T02:51:15;6.70;;;6.20;;
23718;SDS011;43322;52.230;5.702;2022-09-09T02:53:50;5.90;;;5.60;;
23718;SDS011;43322;52.230;5.702;2022-09-09T02:56:25;5.95;;;5.45;;
23718;SDS011;43322;52.230;5.702;2022-09-09T02:58:55;7.00;;;5.82;;
23718;SDS011;43322;52.230;5.702;2022-09-09T03:01:23;6.68;;;5.97;;
23718;SDS011;43322;52.230;5.702;2022-09-09T03:03:50;5.60;;;5.20;;
23718;SDS011;43322;52.230;5.702;2022-09-09T03:06:17;6.10;;;5.53;;
23718;SDS011;43322;52.230;5.702;2022-09-09T03:08:43;7.75;;;5.82;;
23718;SDS011;43322;52.230;5.702;2022-09-09T03:11:10;5.00;;;4.70;;
23718;SDS011;43322;52.230;5.702;2022-09-09T03:13:38;4.90;;;4.60;;
23718;SDS011;43322;52.230;5.702;2022-09-09T03:16:05;5.78;;;5.38;;
23718;SDS011;43322;52.230;5.702;2022-09-09T03:18:33;5.78;;;5.35;;
23718;SDS011;43322;52.230;5.702;2022-09-09T03:21:00;6.97;;;5.45;;
23718;SDS011;43322;52.230;5.702;2022-09-09T03:23:28;6.07;;;5.57;;
23718;SDS011;43322;52.230;5.702;2022-09-09T03:25:55;9.07;;;5.35;;
23718;SDS011;43322;52.230;5.702;2022-09-09T03:28:23;5.82;;;5.53;;
23718;SDS011;43322;52.230;5.702;2022-09-09T03:30:57;7.90;;;4.97;;
23718;SDS011;43322;52.230;5.702;2022-09-09T03:33:25;6.25;;;5.47;;
23718;SDS011;43322;52.230;5.702;2022-09-09T03:35:54;7.05;;;6.45;;
23718;SDS011;43322;52.230;5.702;2022-09-09T03:38:21;6.15;;;5.53;;
23718;SDS011;43322;52.230;5.702;2022-09-09T03:40:49;6.15;;;5.65;;
23718;SDS011;43322;52.230;5.702;2022-09-09T03:43:16;6.85;;;6.25;;
23718;SDS011;43322;52.230;5.702;2022-09-09T03:45:44;6.20;;;5.70;;
23718;SDS011;43322;52.230;5.702;2022-09-09T03:48:12;6.47;;;5.90;;
23718;SDS011;43322;52.230;5.702;2022-09-09T03:50:39;6.72;;;6.22;;
23718;SDS011;43322;52.230;5.702;2022-09-09T03:53:11;6.93;;;5.80;;
23718;SDS011;43322;52.230;5.702;2022-09-09T03:55:37;7.22;;;6.50;;
23718;SDS011;43322;52.230;5.702;2022-09-09T03:58:06;6.53;;;5.93;;
23718;SDS011;43322;52.230;5.702;2022-09-09T04:00:33;6.25;;;5.72;;
23718;SDS011;43322;52.230;5.702;2022-09-09T04:03:00;7.05;;;6.55;;
23718;SDS011;43322;52.230;5.702;2022-09-09T04:05:27;6.32;;;5.70;;
23718;SDS011;43322;52.230;5.702;2022-09-09T04:07:54;6.72;;;5.78;;
23718;SDS011;43322;52.230;5.702;2022-09-09T04:10:22;6.35;;;5.78;;
23718;SDS011;43322;52.230;5.702;2022-09-09T04:12:48;6.35;;;5.75;;
23718;SDS011;43322;52.230;5.702;2022-09-09T04:15:15;6.47;;;5.75;;
23718;SDS011;43322;52.230;5.702;2022-09-09T04:17:43;7.10;;;6.50;;
23718;SDS011;43322;52.230;5.702;2022-09-09T04:20:10;6.30;;;5.90;;
23718;SDS011;43322;52.230;5.702;2022-09-09T04:22:38;6.93;;;6.32;;
23718;SDS011;43322;52.230;5.702;2022-09-09T04:25:05;8.15;;;6.38;;
23718;SDS011;43322;52.230;5.702;2022-09-09T04:27:34;6.85;;;6.28;;
23718;SDS011;43322;52.230;5.702;2022-09-09T04:30:00;6.88;;;6.07;;
23718;SDS011;43322;52.230;5.702;2022-09-09T04:32:28;10.27;;;6.82;;
23718;SDS011;43322;52.230;5.702;2022-09-09T04:34:55;11.32;;;6.55;;
23718;SDS011;43322;52.230;5.702;2022-09-09T04:37:22;6.72;;;6.28;;
23718;SDS011;43322;52.230;5.702;2022-09-09T04:39:50;9.82;;;6.43;;
23718;SDS011;43322;52.230;5.702;2022-09-09T04:42:17;7.53;;;6.80;;
23718;SDS011;43322;52.230;5.702;2022-09-09T04:44:45;7.13;;;6.55;;
23718;SDS011;43322;52.230;5.702;2022-09-09T04:47:12;6.28;;;5.75;;
23718;SDS011;43322;52.230;5.702;2022-09-09T04:49:39;7.90;;;6.07;;
23718;SDS011;43322;52.230;5.702;2022-09-09T04:52:06;6.78;;;6.22;;
23718;SDS011;43322;52.230;5.702;2022-09-09T04:54:33;7.55;;;6.63;;
23718;SDS011;43322;52.230;5.702;2022-09-09T04:57:00;7.95;;;7.25;;
23718;SDS011;43322;52.230;5.702;2022-09-09T04:59:27;7.15;;;6.45;;
23718;SDS011;43322;52.230;5.702;2022-09-09T05:01:55;6.65;;;5.90;;
23718;SDS011;43322;52.230;5.702;2022-09-09T05:04:22;6.68;;;6.10;;
23718;SDS011;43322;52.230;5.702;2022-09-09T05:06:48;6.72;;;6.13;;
23718;SDS011;43322;52.230;5.702;2022-09-09T05:09:15;11.02;;;6.50;;
23718;SDS011;43322;52.230;5.702;2022-09-09T05:11:42;6.03;;;5.70;;
23718;SDS011;43322;52.230;5.702;2022-09-09T05:14:09;9.52;;;5.97;;
23718;SDS011;43322;52.230;5.702;2022-09-09T05:16:37;6.93;;;6.30;;
23718;SDS011;43322;52.230;5.702;2022-09-09T05:19:05;8.40;;;5.88;;
23718;SDS011;43322;52.230;5.702;2022-09-09T05:21:33;6.38;;;5.82;;
23718;SDS011;43322;52.230;5.702;2022-09-09T05:24:00;6.18;;;5.57;;
23718;SDS011;43322;52.230;5.702;2022-09-09T05:26:27;6.47;;;6.00;;
23718;SDS011;43322;52.230;5.702;2022-09-09T05:28:54;7.47;;;5.97;;
23718;SDS011;43322;52.230;5.702;2022-09-09T05:31:22;6.68;;;6.00;;
23718;SDS011;43322;52.230;5.702;2022-09-09T05:33:48;6.65;;;6.03;;
23718;SDS011;43322;52.230;5.702;2022-09-09T05:36:18;6.05;;;5.65;;
23718;SDS011;43322;52.230;5.702;2022-09-09T05:38:46;5.80;;;5.38;;
23718;SDS011;43322;52.230;5.702;2022-09-09T05:41:14;11.93;;;5.28;;
23718;SDS011;43322;52.230;5.702;2022-09-09T05:43:42;5.70;;;5.28;;
23718;SDS011;43322;52.230;5.702;2022-09-09T05:46:11;5.82;;;5.38;;
23718;SDS011;43322;52.230;5.702;2022-09-09T05:48:40;8.68;;;5.63;;
23718;SDS011;43322;52.230;5.702;2022-09-09T05:51:08;5.97;;;5.22;;
23718;SDS011;43322;52.230;5.702;2022-09-09T05:53:38;7.38;;;5.32;;
23718;SDS011;43322;52.230;5.702;2022-09-09T05:56:06;7.65;;;5.60;;
23718;SDS011;43322;52.230;5.702;2022-09-09T05:58:35;7.20;;;6.10;;
23718;SDS011;43322;52.230;5.702;2022-09-09T06:01:02;6.60;;;5.38;;
23718;SDS011;43322;52.230;5.702;2022-09-09T06:03:30;8.10;;;6.38;;
23718;SDS011;43322;52.230;5.702;2022-09-09T06:05:57;9.32;;;6.03;;
23718;SDS011;43322;52.230;5.702;2022-09-09T06:08:25;7.40;;;5.95;;
23718;SDS011;43322;52.230;5.702;2022-09-09T06:10:53;7.53;;;6.32;;
23718;SDS011;43322;52.230;5.702;2022-09-09T06:13:29;6.90;;;6.28;;
23718;SDS011;43322;52.230;5.702;2022-09-09T06:15:56;6.72;;;6.00;;
23718;SDS011;43322;52.230;5.702;2022-09-09T06:18:23;11.93;;;6.30;;
23718;SDS011;43322;52.230;5.702;2022-09-09T06:20:54;7.25;;;5.65;;
23718;SDS011;43322;52.230;5.702;2022-09-09T06:23:25;7.47;;;6.15;;
23718;SDS011;43322;52.230;5.702;2022-09-09T06:26:01;7.20;;;5.68;;
23718;SDS011;43322;52.230;5.702;2022-09-09T06:28:30;8.80;;;5.20;;
23718;SDS011;43322;52.230;5.702;2022-09-09T06:30:57;7.13;;;5.78;;
23718;SDS011;43322;52.230;5.702;2022-09-09T06:33:24;8.10;;;5.55;;
23718;SDS011;43322;52.230;5.702;2022-09-09T06:35:53;8.30;;;4.80;;
23718;SDS011;43322;52.230;5.702;2022-09-09T06:38:22;7.25;;;4.95;;
23718;SDS011;43322;52.230;5.702;2022-09-09T06:40:52;12.25;;;5.45;;
23718;SDS011;43322;52.230;5.702;2022-09-09T06:43:22;6.28;;;5.35;;
23718;SDS011;43322;52.230;5.702;2022-09-09T06:45:55;7.95;;;5.05;;
23718;SDS011;43322;52.230;5.702;2022-09-09T06:48:23;7.55;;;5.18;;
23718;SDS011;43322;52.230;5.702;2022-09-09T06:50:59;7.53;;;5.03;;
23718;SDS011;43322;52.230;5.702;2022-09-09T06:53:27;8.30;;;5.00;;
23718;SDS011;43322;52.230;5.702;2022-09-09T06:55:54;6.35;;;4.65;;
23718;SDS011;43322;52.230;5.702;2022-09-09T06:58:22;5.55;;;4.75;;
23718;SDS011;43322;52.230;5.702;2022-09-09T07:00:49;9.23;;;4.97;;
23718;SDS011;43322;52.230;5.702;2022-09-09T07:03:16;5.45;;;4.00;;
23718;SDS011;43322;52.230;5.702;2022-09-09T07:05:43;8.45;;;4.85;;
23718;SDS011;43322;52.230;5.702;2022-09-09T07:08:19;10.38;;;4.20;;
23718;SDS011;43322;52.230;5.702;2022-09-09T07:10:46;9.68;;;4.35;;
23718;SDS011;43322;52.230;5.702;2022-09-09T07:13:13;8.15;;;4.65;;
23718;SDS011;43322;52.230;5.702;2022-09-09T07:15:42;11.20;;;4.65;;
23718;SDS011;43322;52.230;5.702;2022-09-09T07:18:08;7.88;;;4.43;;
23718;SDS011;43322;52.230;5.702;2022-09-09T07:20:36;6.38;;;4.30;;
23718;SDS011;43322;52.230;5.702;2022-09-09T07:23:03;7.75;;;4.40;;
23718;SDS011;43322;52.230;5.702;2022-09-09T07:25:29;8.65;;;4.75;;
23718;SDS011;43322;52.230;5.702;2022-09-09T07:27:56;7.15;;;4.20;;
23718;SDS011;43322;52.230;5.702;2022-09-09T07:30:23;13.55;;;4.47;;
23718;SDS011;43322;52.230;5.702;2022-09-09T07:32:52;7.82;;;4.28;;
23718;SDS011;43322;52.230;5.702;2022-09-09T07:35:21;8.48;;;3.97;;
23718;SDS011;43322;52.230;5.702;2022-09-09T07:37:48;9.40;;;4.47;;
23718;SDS011;43322;52.230;5.702;2022-09-09T07:40:15;9.38;;;4.75;;
23718;SDS011;43322;52.230;5.702;2022-09-09T07:42:42;10.82;;;4.35;;
23718;SDS011;43322;52.230;5.702;2022-09-09T07:45:09;5.72;;;3.90;;
23718;SDS011;43322;52.230;5.702;2022-09-09T07:47:36;8.98;;;3.58;;
23718;SDS011;43322;52.230;5.702;2022-09-09T07:50:05;9.50;;;3.90;;
23718;SDS011;43322;52.230;5.702;2022-09-09T07:52:33;5.97;;;3.50;;
23718;SDS011;43322;52.230;5.702;2022-09-09T07:55:00;15.40;;;4.25;;
23718;SDS011;43322;52.230;5.702;2022-09-09T07:57:29;11.93;;;4.15;;
23718;SDS011;43322;52.230;5.702;2022-09-09T07:59:56;7.85;;;3.90;;
23718;SDS011;43322;52.230;5.702;2022-09-09T08:02:23;6.57;;;3.67;;
23718;SDS011;43322;52.230;5.702;2022-09-09T08:04:53;9.13;;;3.85;;
23718;SDS011;43322;52.230;5.702;2022-09-09T08:07:21;8.95;;;4.07;;
23718;SDS011;43322;52.230;5.702;2022-09-09T08:09:48;6.38;;;3.67;;
23718;SDS011;43322;52.230;5.702;2022-09-09T08:12:15;5.55;;;3.53;;
23718;SDS011;43322;52.230;5.702;2022-09-09T08:14:42;6.28;;;3.75;;
23718;SDS011;43322;52.230;5.702;2022-09-09T08:17:09;9.07;;;3.70;;
23718;SDS011;43322;52.230;5.702;2022-09-09T08:19:36;8.65;;;3.95;;
23718;SDS011;43322;52.230;5.702;2022-09-09T08:22:02;11.90;;;4.25;;
23718;SDS011;43322;52.230;5.702;2022-09-09T08:24:30;6.35;;;3.38;;
23718;SDS011;43322;52.230;5.702;2022-09-09T08:26:57;9.63;;;4.03;;
23718;SDS011;43322;52.230;5.702;2022-09-09T08:29:24;9.02;;;3.67;;
23718;SDS011;43322;52.230;5.702;2022-09-09T08:31:53;8.18;;;2.97;;
23718;SDS011;43322;52.230;5.702;2022-09-09T08:34:22;8.25;;;3.55;;
23718;SDS011;43322;52.230;5.702;2022-09-09T08:36:51;7.68;;;3.10;;
23718;SDS011;43322;52.230;5.702;2022-09-09T08:39:18;7.95;;;3.38;;
23718;SDS011;43322;52.230;5.702;2022-09-09T08:41:52;10.70;;;3.63;;
23718;SDS011;43322;52.230;5.702;2022-09-09T08:44:44;4.78;;;3.10;;
23718;SDS011;43322;52.230;5.702;2022-09-09T08:47:30;8.07;;;3.90;;
23718;SDS011;43322;52.230;5.702;2022-09-09T08:50:13;14.13;;;3.10;;
23718;SDS011;43322;52.230;5.702;2022-09-09T08:52:49;6.22;;;3.40;;
23718;SDS011;43322;52.230;5.702;2022-09-09T08:55:21;7.50;;;2.92;;
23718;SDS011;43322;52.230;5.702;2022-09-09T08:57:58;7.30;;;3.13;;
23718;SDS011;43322;52.230;5.702;2022-09-09T09:00:32;9.85;;;3.63;;
23718;SDS011;43322;52.230;5.702;2022-09-09T09:03:05;6.72;;;3.40;;
23718;SDS011;43322;52.230;5.702;2022-09-09T09:05:40;6.68;;;3.58;;
23718;SDS011;43322;52.230;5.702;2022-09-09T09:08:14;7.45;;;3.10;;
23718;SDS011;43322;52.230;5.702;2022-09-09T09:10:49;6.15;;;3.17;;
23718;SDS011;43322;52.230;5.702;2022-09-09T09:13:24;8.27;;;2.80;;
23718;SDS011;43322;52.230;5.702;2022-09-09T09:16:00;6.70;;;3.20;;
23718;SDS011;43322;52.230;5.702;2022-09-09T09:18:30;7.93;;;2.80;;
23718;SDS011;43322;52.230;5.702;2022-09-09T09:21:00;9.80;;;3.53;;
23718;SDS011;43322;52.230;5.702;2022-09-09T09:23:38;8.77;;;3.30;;
23718;SDS011;43322;52.230;5.702;2022-09-09T09:26:09;5.85;;;2.97;;
23718;SDS011;43322;52.230;5.702;2022-09-09T09:28:38;9.38;;;2.70;;
23718;SDS011;43322;52.230;5.702;2022-09-09T09:31:07;7.18;;;2.88;;
23718;SDS011;43322;52.230;5.702;2022-09-09T09:33:37;9.45;;;3.33;;
23718;SDS011;43322;52.230;5.702;2022-09-09T09:36:11;6.38;;;2.58;;
23718;SDS011;43322;52.230;5.702;2022-09-09T09:38:40;6.05;;;2.42;;
23718;SDS011;43322;52.230;5.702;2022-09-09T09:41:28;5.07;;;2.17;;
23718;SDS011;43322;52.230;5.702;2022-09-09T09:43:57;6.03;;;2.55;;
23718;SDS011;43322;52.230;5.702;2022-09-09T09:46:25;9.65;;;2.65;;
23718;SDS011;43322;52.230;5.702;2022-09-09T09:48:56;5.28;;;2.20;;
23718;SDS011;43322;52.230;5.702;2022-09-09T09:51:24;8.40;;;2.55;;
23718;SDS011;43322;52.230;5.702;2022-09-09T09:53:52;7.90;;;2.22;;
23718;SDS011;43322;52.230;5.702;2022-09-09T09:56:26;12.30;;;3.00;;
23718;SDS011;43322;52.230;5.702;2022-09-09T09:58:55;8.50;;;3.20;;
23718;SDS011;43322;52.230;5.702;2022-09-09T10:01:24;6.50;;;3.13;;
23718;SDS011;43322;52.230;5.702;2022-09-09T10:03:53;4.43;;;2.75;;
23718;SDS011;43322;52.230;5.702;2022-09-09T10:06:29;6.15;;;2.25;;
23718;SDS011;43322;52.230;5.702;2022-09-09T10:08:58;3.45;;;2.13;;
23718;SDS011;43322;52.230;5.702;2022-09-09T10:11:29;5.45;;;2.47;;
23718;SDS011;43322;52.230;5.702;2022-09-09T10:14:08;6.57;;;2.53;;
23718;SDS011;43322;52.230;5.702;2022-09-09T10:16:47;6.70;;;2.30;;
23718;SDS011;43322;52.230;5.702;2022-09-09T10:19:30;5.47;;;2.10;;
23718;SDS011;43322;52.230;5.702;2022-09-09T10:22:07;4.45;;;2.22;;
23718;SDS011;43322;52.230;5.702;2022-09-09T10:27:50;8.82;;;2.60;;
23718;SDS011;43322;52.230;5.702;2022-09-09T10:30:33;4.60;;;1.58;;
23718;SDS011;43322;52.230;5.702;2022-09-09T10:33:10;11.05;;;2.22;;
23718;SDS011;43322;52.230;5.702;2022-09-09T10:35:47;6.65;;;2.35;;
23718;SDS011;43322;52.230;5.702;2022-09-09T10:38:21;5.97;;;2.33;;
23718;SDS011;43322;52.230;5.702;2022-09-09T10:41:01;4.82;;;2.28;;
23718;SDS011;43322;52.230;5.702;2022-09-09T10:43:47;5.03;;;2.05;;
23718;SDS011;43322;52.230;5.702;2022-09-09T10:46:34;7.55;;;2.50;;
23718;SDS011;43322;52.230;5.702;2022-09-09T10:49:12;5.38;;;2.00;;
23718;SDS011;43322;52.230;5.702;2022-09-09T10:51:49;5.97;;;1.98;;
23718;SDS011;43322;52.230;5.702;2022-09-09T10:54:30;5.00;;;2.20;;
23718;SDS011;43322;52.230;5.702;2022-09-09T10:57:08;3.13;;;1.70;;
23718;SDS011;43322;52.230;5.702;2022-09-09T10:59:40;10.73;;;2.40;;
23718;SDS011;43322;52.230;5.702;2022-09-09T11:02:15;6.25;;;2.20;;
23718;SDS011;43322;52.230;5.702;2022-09-09T11:04:45;5.65;;;1.88;;
23718;SDS011;43322;52.230;5.702;2022-09-09T11:07:25;9.75;;;2.13;;
23718;SDS011;43322;52.230;5.702;2022-09-09T11:09:58;3.20;;;1.90;;
23718;SDS011;43322;52.230;5.702;2022-09-09T11:12:28;7.90;;;2.55;;
23718;SDS011;43322;52.230;5.702;2022-09-09T11:14:59;5.72;;;2.70;;
23718;SDS011;43322;52.230;5.702;2022-09-09T11:17:35;6.65;;;2.30;;
23718;SDS011;43322;52.230;5.702;2022-09-09T11:20:10;8.25;;;2.78;;
23718;SDS011;43322;52.230;5.702;2022-09-09T11:22:39;5.93;;;2.53;;
23718;SDS011;43322;52.230;5.702;2022-09-09T11:25:14;6.00;;;2.97;;
23718;SDS011;43322;52.230;5.702;2022-09-09T11:27:44;7.03;;;2.88;;
23718;SDS011;43322;52.230;5.702;2022-09-09T11:30:25;3.13;;;2.42;;
23718;SDS011;43322;52.230;5.702;2022-09-09T11:33:16;8.80;;;3.00;;
23718;SDS011;43322;52.230;5.702;2022-09-09T11:36:08;3.08;;;2.63;;
23718;SDS011;43322;52.230;5.702;2022-09-09T11:38:55;5.18;;;3.22;;
23718;SDS011;43322;52.230;5.702;2022-09-09T11:41:32;8.82;;;2.83;;
23718;SDS011;43322;52.230;5.702;2022-09-09T11:44:08;5.40;;;3.05;;
23718;SDS011;43322;52.230;5.702;2022-09-09T11:46:37;5.10;;;2.25;;
23718;SDS011;43322;52.230;5.702;2022-09-09T11:49:22;6.15;;;2.40;;
23718;SDS011;43322;52.230;5.702;2022-09-09T11:51:53;6.85;;;2.28;;
23718;SDS011;43322;52.230;5.702;2022-09-09T11:54:26;7.65;;;2.55;;
23718;SDS011;43322;52.230;5.702;2022-09-09T11:56:55;3.20;;;2.00;;
23718;SDS011;43322;52.230;5.702;2022-09-09T11:59:23;2.55;;;1.95;;
23718;SDS011;43322;52.230;5.702;2022-09-09T12:01:54;3.42;;;2.10;;
23718;SDS011;43322;52.230;5.702;2022-09-09T12:04:34;4.00;;;2.00;;
23718;SDS011;43322;52.230;5.702;2022-09-09T12:07:05;3.10;;;1.90;;
23718;SDS011;43322;52.230;5.702;2022-09-09T12:09:51;4.10;;;1.85;;
23718;SDS011;43322;52.230;5.702;2022-09-09T12:12:24;2.63;;;1.70;;
23718;SDS011;43322;52.230;5.702;2022-09-09T12:14:55;3.88;;;2.10;;
23718;SDS011;43322;52.230;5.702;2022-09-09T12:17:25;4.10;;;2.15;;
23718;SDS011;43322;52.230;5.702;2022-09-09T12:20:08;7.63;;;2.70;;
23718;SDS011;43322;52.230;5.702;2022-09-09T12:22:45;5.15;;;2.15;;
23718;SDS011;43322;52.230;5.702;2022-09-09T12:25:23;3.45;;;2.05;;
23718;SDS011;43322;52.230;5.702;2022-09-09T12:28:00;5.28;;;2.67;;
23718;SDS011;43322;52.230;5.702;2022-09-09T12:30:31;4.93;;;2.63;;
23718;SDS011;43322;52.230;5.702;2022-09-09T12:33:07;4.00;;;2.00;;
23718;SDS011;43322;52.230;5.702;2022-09-09T12:35:39;4.38;;;1.90;;
23718;SDS011;43322;52.230;5.702;2022-09-09T12:38:09;5.55;;;2.60;;
23718;SDS011;43322;52.230;5.702;2022-09-09T12:40:41;6.63;;;2.28;;
23718;SDS011;43322;52.230;5.702;2022-09-09T12:43:17;2.88;;;1.90;;
23718;SDS011;43322;52.230;5.702;2022-09-09T12:45:46;3.88;;;1.90;;
23718;SDS011;43322;52.230;5.702;2022-09-09T12:48:15;2.70;;;1.88;;
23718;SDS011;43322;52.230;5.702;2022-09-09T12:50:47;3.58;;;2.10;;
23718;SDS011;43322;52.230;5.702;2022-09-09T12:53:18;3.72;;;2.10;;
23718;SDS011;43322;52.230;5.702;2022-09-09T12:55:49;6.18;;;2.90;;
23718;SDS011;43322;52.230;5.702;2022-09-09T12:58:18;5.72;;;2.78;;
23718;SDS011;43322;52.230;5.702;2022-09-09T13:00:49;2.30;;;2.00;;
23718;SDS011;43322;52.230;5.702;2022-09-09T13:03:18;4.90;;;2.58;;
23718;SDS011;43322;52.230;5.702;2022-09-09T13:05:48;4.57;;;2.13;;
23718;SDS011;43322;52.230;5.702;2022-09-09T13:08:16;3.42;;;2.20;;
23718;SDS011;43322;52.230;5.702;2022-09-09T13:10:46;4.30;;;2.10;;
23718;SDS011;43322;52.230;5.702;2022-09-09T13:13:17;3.67;;;2.30;;
23718;SDS011;43322;52.230;5.702;2022-09-09T13:15:49;3.53;;;2.22;;
23718;SDS011;43322;52.230;5.702;2022-09-09T13:18:18;6.20;;;2.17;;
23718;SDS011;43322;52.230;5.702;2022-09-09T13:20:49;5.88;;;2.38;;
23718;SDS011;43322;52.230;5.702;2022-09-09T13:23:17;3.97;;;2.38;;
23718;SDS011;43322;52.230;5.702;2022-09-09T13:25:52;3.25;;;2.30;;
23718;SDS011;43322;52.230;5.702;2022-09-09T13:28:21;3.40;;;2.10;;
23718;SDS011;43322;52.230;5.702;2022-09-09T13:30:56;5.13;;;2.58;;
23718;SDS011;43322;52.230;5.702;2022-09-09T13:33:29;4.45;;;2.15;;
23718;SDS011;43322;52.230;5.702;2022-09-09T13:36:00;3.72;;;2.72;;
23718;SDS011;43322;52.230;5.702;2022-09-09T13:38:31;4.32;;;2.58;;
23718;SDS011;43322;52.230;5.702;2022-09-09T13:41:00;4.65;;;2.10;;
23718;SDS011;43322;52.230;5.702;2022-09-09T13:43:30;4.25;;;2.20;;
23718;SDS011;43322;52.230;5.702;2022-09-09T13:46:01;4.78;;;2.42;;
23718;SDS011;43322;52.230;5.702;2022-09-09T13:48:30;3.38;;;2.42;;
23718;SDS011;43322;52.230;5.702;2022-09-09T13:50:58;6.55;;;2.25;;
23718;SDS011;43322;52.230;5.702;2022-09-09T13:53:28;3.65;;;2.30;;
23718;SDS011;43322;52.230;5.702;2022-09-09T13:55:55;2.70;;;2.33;;
23718;SDS011;43322;52.230;5.702;2022-09-09T13:58:23;5.25;;;2.40;;
23718;SDS011;43322;52.230;5.702;2022-09-09T14:00:50;5.53;;;2.08;;
23718;SDS011;43322;52.230;5.702;2022-09-09T14:03:17;4.25;;;1.95;;
23718;SDS011;43322;52.230;5.702;2022-09-09T14:05:45;5.32;;;2.50;;
23718;SDS011;43322;52.230;5.702;2022-09-09T14:08:17;3.53;;;2.28;;
23718;SDS011;43322;52.230;5.702;2022-09-09T14:10:48;7.05;;;2.80;;
23718;SDS011;43322;52.230;5.702;2022-09-09T14:13:15;4.57;;;2.20;;
23718;SDS011;43322;52.230;5.702;2022-09-09T14:15:42;4.00;;;2.47;;
23718;SDS011;43322;52.230;5.702;2022-09-09T14:18:11;5.75;;;2.10;;
23718;SDS011;43322;52.230;5.702;2022-09-09T14:20:39;2.65;;;2.00;;
23718;SDS011;43322;52.230;5.702;2022-09-09T14:23:07;4.47;;;2.25;;
23718;SDS011;43322;52.230;5.702;2022-09-09T14:25:40;6.32;;;2.38;;
23718;SDS011;43322;52.230;5.702;2022-09-09T14:28:11;3.00;;;2.22;;
23718;SDS011;43322;52.230;5.702;2022-09-09T14:30:40;3.30;;;2.15;;
23718;SDS011;43322;52.230;5.702;2022-09-09T14:33:09;1.92;;;1.70;;
23718;SDS011;43322;52.230;5.702;2022-09-09T14:35:40;3.20;;;2.10;;
23718;SDS011;43322;52.230;5.702;2022-09-09T14:38:08;2.50;;;2.20;;
23718;SDS011;43322;52.230;5.702;2022-09-09T14:40:36;3.50;;;1.98;;
23718;SDS011;43322;52.230;5.702;2022-09-09T14:43:05;2.55;;;1.80;;
23718;SDS011;43322;52.230;5.702;2022-09-09T14:45:32;4.78;;;2.20;;
23718;SDS011;43322;52.230;5.702;2022-09-09T14:47:59;5.10;;;2.38;;
23718;SDS011;43322;52.230;5.702;2022-09-09T14:50:26;4.30;;;2.20;;
23718;SDS011;43322;52.230;5.702;2022-09-09T14:52:53;6.10;;;2.20;;
23718;SDS011;43322;52.230;5.702;2022-09-09T14:55:20;3.45;;;1.83;;
23718;SDS011;43322;52.230;5.702;2022-09-09T14:57:47;2.85;;;1.90;;
23718;SDS011;43322;52.230;5.702;2022-09-09T15:00:16;4.93;;;1.95;;
23718;SDS011;43322;52.230;5.702;2022-09-09T15:02:43;1.80;;;1.65;;
23718;SDS011;43322;52.230;5.702;2022-09-09T15:05:10;4.22;;;2.00;;
23718;SDS011;43322;52.230;5.702;2022-09-09T15:07:37;4.53;;;2.08;;
23718;SDS011;43322;52.230;5.702;2022-09-09T15:10:05;3.72;;;1.98;;
23718;SDS011;43322;52.230;5.702;2022-09-09T15:12:32;3.88;;;2.00;;